sensor_id;sensor_type;location;lat;lon;timestamp;pressure;altitude;pressure_sealevel;temperature;humidity
70323;BME280;57735;56.264;43.898;2022-08-19T00:01:44;101672.06;;;18.19;54.19
70323;BME280;57735;56.264;43.898;2022-08-19T00:04:18;101676.28;;;18.13;54.30
70323;BME280;57735;56.264;43.898;2022-08-19T00:06:49;101681.00;;;18.11;54.16
70323;BME280;57735;56.264;43.898;2022-08-19T00:09:22;101675.81;;;18.09;54.03
70323;BME280;57735;56.264;43.898;2022-08-19T00:11:53;101683.56;;;18.04;54.15
70323;BME280;57735;56.264;43.898;2022-08-19T00:14:31;101684.75;;;18.02;54.10
70323;BME280;57735;56.264;43.898;2022-08-19T00:17:02;101686.75;;;18.00;53.90
70323;BME280;57735;56.264;43.898;2022-08-19T00:19:34;101693.50;;;17.96;53.80
70323;BME280;57735;56.264;43.898;2022-08-19T00:22:05;101695.53;;;17.94;53.70
70323;BME280;57735;56.264;43.898;2022-08-19T00:24:38;101700.59;;;17.89;53.73
70323;BME280;57735;56.264;43.898;2022-08-19T00:27:11;101700.94;;;17.86;53.67
70323;BME280;57735;56.264;43.898;2022-08-19T00:29:42;101700.94;;;17.86;53.33
70323;BME280;57735;56.264;43.898;2022-08-19T00:32:13;101706.66;;;17.83;53.32
70323;BME280;57735;56.264;43.898;2022-08-19T00:34:44;101716.09;;;17.78;53.65
70323;BME280;57735;56.264;43.898;2022-08-19T00:37:15;101714.63;;;17.76;53.72
70323;BME280;57735;56.264;43.898;2022-08-19T00:39:45;101714.44;;;17.69;53.98
70323;BME280;57735;56.264;43.898;2022-08-19T00:42:18;101724.69;;;17.66;54.01
70323;BME280;57735;56.264;43.898;2022-08-19T00:44:50;101709.34;;;17.58;54.33
70323;BME280;57735;56.264;43.898;2022-08-19T00:47:21;101726.00;;;17.54;54.22
70323;BME280;57735;56.264;43.898;2022-08-19T00:49:55;101724.97;;;17.47;54.58
70323;BME280;57735;56.264;43.898;2022-08-19T00:52:32;101725.50;;;17.42;54.59
70323;BME280;57735;56.264;43.898;2022-08-19T00:55:07;101730.34;;;17.38;54.79
70323;BME280;57735;56.264;43.898;2022-08-19T00:57:47;101725.63;;;17.32;54.97
70323;BME280;57735;56.264;43.898;2022-08-19T01:00:19;101726.25;;;17.26;55.03
70323;BME280;57735;56.264;43.898;2022-08-19T01:02:51;101724.75;;;17.24;55.05
70323;BME280;57735;56.264;43.898;2022-08-19T01:05:26;101731.63;;;17.18;55.24
70323;BME280;57735;56.264;43.898;2022-08-19T01:08:02;101732.13;;;17.14;55.42
70323;BME280;57735;56.264;43.898;2022-08-19T01:10:37;101737.84;;;17.10;55.37
70323;BME280;57735;56.264;43.898;2022-08-19T01:13:10;101735.81;;;17.04;55.45
70323;BME280;57735;56.264;43.898;2022-08-19T01:15:45;101742.53;;;17.00;55.47
70323;BME280;57735;56.264;43.898;2022-08-19T01:18:19;101741.16;;;16.96;55.73
70323;BME280;57735;56.264;43.898;2022-08-19T01:20:50;101737.94;;;16.93;55.59
70323;BME280;57735;56.264;43.898;2022-08-19T01:23:22;101745.50;;;16.89;55.76
70323;BME280;57735;56.264;43.898;2022-08-19T01:26:16;101732.53;;;16.85;55.95
70323;BME280;57735;56.264;43.898;2022-08-19T01:28:50;101741.06;;;16.80;56.08
70323;BME280;57735;56.264;43.898;2022-08-19T01:31:23;101739.38;;;16.79;55.94
70323;BME280;57735;56.264;43.898;2022-08-19T01:33:56;101736.00;;;16.77;55.51
70323;BME280;57735;56.264;43.898;2022-08-19T01:36:37;101737.69;;;16.78;55.43
70323;BME280;57735;56.264;43.898;2022-08-19T01:39:11;101739.69;;;16.76;55.42
70323;BME280;57735;56.264;43.898;2022-08-19T01:41:42;101741.75;;;16.74;55.52
70323;BME280;57735;56.264;43.898;2022-08-19T01:44:13;101744.59;;;16.72;55.23
70323;BME280;57735;56.264;43.898;2022-08-19T01:46:47;101748.13;;;16.73;55.12
70323;BME280;57735;56.264;43.898;2022-08-19T01:49:22;101753.81;;;16.70;55.29
70323;BME280;57735;56.264;43.898;2022-08-19T01:51:54;101751.13;;;16.70;55.10
70323;BME280;57735;56.264;43.898;2022-08-19T01:54:27;101754.44;;;16.64;55.34
70323;BME280;57735;56.264;43.898;2022-08-19T01:57:05;101756.56;;;16.60;55.09
70323;BME280;57735;56.264;43.898;2022-08-19T01:59:40;101763.66;;;16.61;55.12
70323;BME280;57735;56.264;43.898;2022-08-19T02:02:11;101761.31;;;16.58;55.21
70323;BME280;57735;56.264;43.898;2022-08-19T02:04:42;101759.47;;;16.59;54.93
70323;BME280;57735;56.264;43.898;2022-08-19T02:07:13;101759.47;;;16.59;54.96
70323;BME280;57735;56.264;43.898;2022-08-19T02:09:44;101764.00;;;16.58;55.02
70323;BME280;57735;56.264;43.898;2022-08-19T02:12:15;101772.22;;;16.57;55.04
70323;BME280;57735;56.264;43.898;2022-08-19T02:14:47;101771.38;;;16.56;54.92
70323;BME280;57735;56.264;43.898;2022-08-19T02:17:18;101770.53;;;16.56;55.12
70323;BME280;57735;56.264;43.898;2022-08-19T02:19:52;101766.31;;;16.53;55.00
70323;BME280;57735;56.264;43.898;2022-08-19T02:22:24;101772.22;;;16.57;54.90
70323;BME280;57735;56.264;43.898;2022-08-19T02:24:56;101780.16;;;16.58;54.66
70323;BME280;57735;56.264;43.898;2022-08-19T02:27:27;101762.97;;;16.59;54.53
70323;BME280;57735;56.264;43.898;2022-08-19T02:29:57;101762.16;;;16.59;54.68
70323;BME280;57735;56.264;43.898;2022-08-19T02:32:30;101762.16;;;16.59;54.61
70323;BME280;57735;56.264;43.898;2022-08-19T02:35:02;101775.63;;;16.59;54.69
70323;BME280;57735;56.264;43.898;2022-08-19T02:37:34;101778.31;;;16.59;54.80
70323;BME280;57735;56.264;43.898;2022-08-19T02:40:25;101783.34;;;16.62;54.47
70323;BME280;57735;56.264;43.898;2022-08-19T02:42:56;101794.28;;;16.60;54.60
70323;BME280;57735;56.264;43.898;2022-08-19T02:45:32;101796.13;;;16.60;54.57
70323;BME280;57735;56.264;43.898;2022-08-19T02:48:04;101784.69;;;16.58;54.77
70323;BME280;57735;56.264;43.898;2022-08-19T02:50:39;101789.38;;;16.56;54.70
70323;BME280;57735;56.264;43.898;2022-08-19T02:53:10;101790.38;;;16.55;54.60
70323;BME280;57735;56.264;43.898;2022-08-19T02:55:46;101795.09;;;16.53;54.57
70323;BME280;57735;56.264;43.898;2022-08-19T02:58:19;101794.25;;;16.52;54.68
70323;BME280;57735;56.264;43.898;2022-08-19T03:00:55;101807.53;;;16.54;54.85
70323;BME280;57735;56.264;43.898;2022-08-19T03:03:26;101806.84;;;16.52;55.02
70323;BME280;57735;56.264;43.898;2022-08-19T03:06:14;101812.38;;;16.50;54.97
70323;BME280;57735;56.264;43.898;2022-08-19T03:08:47;101820.16;;;16.53;54.95
70323;BME280;57735;56.264;43.898;2022-08-19T03:11:25;101829.06;;;16.54;55.03
70323;BME280;57735;56.264;43.898;2022-08-19T03:13:58;101824.53;;;16.54;55.29
70323;BME280;57735;56.264;43.898;2022-08-19T03:16:32;101823.69;;;16.54;55.15
70323;BME280;57735;56.264;43.898;2022-08-19T03:19:04;101828.06;;;16.55;55.11
70323;BME280;57735;56.264;43.898;2022-08-19T03:21:37;101829.63;;;16.57;55.31
70323;BME280;57735;56.264;43.898;2022-08-19T03:24:08;101825.06;;;16.58;55.35
70323;BME280;57735;56.264;43.898;2022-08-19T03:26:47;101829.63;;;16.57;55.24
70323;BME280;57735;56.264;43.898;2022-08-19T03:29:19;101829.47;;;16.59;55.16
70323;BME280;57735;56.264;43.898;2022-08-19T03:31:53;101842.94;;;16.59;55.17
70323;BME280;57735;56.264;43.898;2022-08-19T03:34:27;101839.03;;;16.61;55.04
70323;BME280;57735;56.264;43.898;2022-08-19T03:37:07;101844.31;;;16.63;55.18
70323;BME280;57735;56.264;43.898;2022-08-19T03:39:41;101834.50;;;16.62;55.15
70323;BME280;57735;56.264;43.898;2022-08-19T03:42:12;101841.03;;;16.59;55.16
70323;BME280;57735;56.264;43.898;2022-08-19T03:44:45;101849.31;;;16.58;55.25
70323;BME280;57735;56.264;43.898;2022-08-19T03:47:16;101847.28;;;16.60;55.13
70323;BME280;57735;56.264;43.898;2022-08-19T03:49:50;101852.50;;;16.61;55.20
70323;BME280;57735;56.264;43.898;2022-08-19T03:52:20;101851.50;;;16.62;55.05
70323;BME280;57735;56.264;43.898;2022-08-19T03:54:51;101849.53;;;16.64;55.01
70323;BME280;57735;56.264;43.898;2022-08-19T03:57:22;101844.84;;;16.66;54.97
70323;BME280;57735;56.264;43.898;2022-08-19T03:59:53;101844.69;;;16.68;54.80
70323;BME280;57735;56.264;43.898;2022-08-19T04:02:24;101854.16;;;16.72;54.72
70323;BME280;57735;56.264;43.898;2022-08-19T04:04:55;101847.75;;;16.73;54.83
70323;BME280;57735;56.264;43.898;2022-08-19T04:07:26;101861.56;;;16.78;54.71
70323;BME280;57735;56.264;43.898;2022-08-19T04:09:57;101853.88;;;16.83;54.45
70323;BME280;57735;56.264;43.898;2022-08-19T04:12:28;101855.94;;;16.89;54.29
70323;BME280;57735;56.264;43.898;2022-08-19T04:14:59;101858.16;;;16.94;54.48
70323;BME280;57735;56.264;43.898;2022-08-19T04:17:29;101863.06;;;16.98;54.38
70323;BME280;57735;56.264;43.898;2022-08-19T04:20:00;101871.22;;;17.06;53.74
70323;BME280;57735;56.264;43.898;2022-08-19T04:22:31;101870.88;;;17.09;53.53
70323;BME280;57735;56.264;43.898;2022-08-19T04:25:03;101882.03;;;17.15;53.67
70323;BME280;57735;56.264;43.898;2022-08-19T04:27:34;101889.47;;;17.21;53.08
70323;BME280;57735;56.264;43.898;2022-08-19T04:30:05;101885.97;;;17.28;53.14
70323;BME280;57735;56.264;43.898;2022-08-19T04:32:36;101885.19;;;17.36;52.81
70323;BME280;57735;56.264;43.898;2022-08-19T04:35:10;101891.78;;;17.41;52.60
70323;BME280;57735;56.264;43.898;2022-08-19T04:37:41;101890.13;;;17.49;52.36
70323;BME280;57735;56.264;43.898;2022-08-19T04:40:11;101886.31;;;17.59;52.36
70323;BME280;57735;56.264;43.898;2022-08-19T04:43:01;101890.06;;;17.66;51.92
70323;BME280;57735;56.264;43.898;2022-08-19T04:45:32;101886.72;;;17.72;51.86
70323;BME280;57735;56.264;43.898;2022-08-19T04:48:02;101889.09;;;17.75;51.85
70323;BME280;57735;56.264;43.898;2022-08-19T04:50:33;101905.28;;;17.75;51.38
70323;BME280;57735;56.264;43.898;2022-08-19T04:53:04;101902.06;;;17.80;51.34
70323;BME280;57735;56.264;43.898;2022-08-19T04:55:38;101900.59;;;17.86;50.98
70323;BME280;57735;56.264;43.898;2022-08-19T04:58:09;101906.19;;;17.92;51.06
70323;BME280;57735;56.264;43.898;2022-08-19T05:00:40;101905.00;;;18.03;50.90
70323;BME280;57735;56.264;43.898;2022-08-19T05:03:11;101897.94;;;18.10;50.63
70323;BME280;57735;56.264;43.898;2022-08-19T05:05:44;101896.25;;;18.17;50.03
70323;BME280;57735;56.264;43.898;2022-08-19T05:08:19;101895.28;;;18.26;50.28
70323;BME280;57735;56.264;43.898;2022-08-19T05:10:51;101892.41;;;18.36;49.72
70323;BME280;57735;56.264;43.898;2022-08-19T05:13:22;101911.16;;;18.45;49.56
70323;BME280;57735;56.264;43.898;2022-08-19T05:15:57;101909.16;;;18.56;48.68
70323;BME280;57735;56.264;43.898;2022-08-19T05:18:28;101899.19;;;18.64;48.40
70323;BME280;57735;56.264;43.898;2022-08-19T05:21:19;101899.03;;;18.74;48.21
70323;BME280;57735;56.264;43.898;2022-08-19T05:24:08;101905.78;;;18.86;48.06
70323;BME280;57735;56.264;43.898;2022-08-19T05:26:47;101900.56;;;18.93;47.56
70323;BME280;57735;56.264;43.898;2022-08-19T05:29:20;101901.38;;;19.01;47.52
70323;BME280;57735;56.264;43.898;2022-08-19T05:31:55;101901.38;;;19.09;47.04
70323;BME280;57735;56.264;43.898;2022-08-19T05:34:26;101896.94;;;19.16;46.53
70323;BME280;57735;56.264;43.898;2022-08-19T05:37:01;101896.75;;;19.26;46.46
70323;BME280;57735;56.264;43.898;2022-08-19T05:39:34;101887.75;;;19.34;46.34
70323;BME280;57735;56.264;43.898;2022-08-19T05:42:10;101901.09;;;19.43;46.27
70323;BME280;57735;56.264;43.898;2022-08-19T05:44:43;101914.78;;;19.50;45.74
70323;BME280;57735;56.264;43.898;2022-08-19T05:47:19;101911.22;;;19.58;45.76
70323;BME280;57735;56.264;43.898;2022-08-19T05:49:50;101917.78;;;19.63;45.53
70323;BME280;57735;56.264;43.898;2022-08-19T05:52:21;101933.34;;;19.61;45.19
70323;BME280;57735;56.264;43.898;2022-08-19T05:54:53;101925.53;;;19.66;45.29
70323;BME280;57735;56.264;43.898;2022-08-19T05:57:25;101929.91;;;19.75;45.51
70323;BME280;57735;56.264;43.898;2022-08-19T05:59:59;101931.56;;;19.84;44.94
70323;BME280;57735;56.264;43.898;2022-08-19T06:02:36;101930.88;;;19.91;44.65
70323;BME280;57735;56.264;43.898;2022-08-19T06:05:10;101943.00;;;19.95;44.52
70323;BME280;57735;56.264;43.898;2022-08-19T06:07:41;101933.84;;;20.04;44.38
70323;BME280;57735;56.264;43.898;2022-08-19T06:10:12;101941.53;;;20.15;44.38
70323;BME280;57735;56.264;43.898;2022-08-19T06:12:43;101943.47;;;20.29;44.55
70323;BME280;57735;56.264;43.898;2022-08-19T06:15:14;101948.19;;;20.35;43.68
70323;BME280;57735;56.264;43.898;2022-08-19T06:17:45;101950.41;;;20.40;43.57
70323;BME280;57735;56.264;43.898;2022-08-19T06:20:16;101947.19;;;20.36;43.85
70323;BME280;57735;56.264;43.898;2022-08-19T06:22:48;101948.06;;;20.37;43.27
70323;BME280;57735;56.264;43.898;2022-08-19T06:25:20;101942.09;;;20.33;43.23
70323;BME280;57735;56.264;43.898;2022-08-19T06:27:51;101953.97;;;20.32;43.52
70323;BME280;57735;56.264;43.898;2022-08-19T06:30:23;101945.66;;;20.34;43.48
70323;BME280;57735;56.264;43.898;2022-08-19T06:32:56;101945.16;;;20.38;43.64
70323;BME280;57735;56.264;43.898;2022-08-19T06:35:28;101955.47;;;20.43;43.60
70323;BME280;57735;56.264;43.898;2022-08-19T06:38:00;101953.53;;;20.51;43.62
70323;BME280;57735;56.264;43.898;2022-08-19T06:40:31;101951.63;;;20.60;43.13
70323;BME280;57735;56.264;43.898;2022-08-19T06:43:01;101950.69;;;20.68;42.89
70323;BME280;57735;56.264;43.898;2022-08-19T06:45:32;101952.34;;;20.77;42.56
70323;BME280;57735;56.264;43.898;2022-08-19T06:48:04;101948.88;;;20.83;41.96
70323;BME280;57735;56.264;43.898;2022-08-19T06:50:44;101954.72;;;20.95;42.04
70323;BME280;57735;56.264;43.898;2022-08-19T06:53:23;101956.13;;;21.05;41.23
70323;BME280;57735;56.264;43.898;2022-08-19T06:55:55;101975.97;;;21.06;39.99
70323;BME280;57735;56.264;43.898;2022-08-19T06:58:31;101965.66;;;21.01;40.53
70323;BME280;57735;56.264;43.898;2022-08-19T07:01:05;101951.03;;;21.10;40.52
70323;BME280;57735;56.264;43.898;2022-08-19T07:03:37;101954.47;;;21.19;40.25
70323;BME280;57735;56.264;43.898;2022-08-19T07:06:14;101953.19;;;21.30;39.57
70323;BME280;57735;56.264;43.898;2022-08-19T07:08:48;101970.44;;;21.37;39.56
70323;BME280;57735;56.264;43.898;2022-08-19T07:11:22;101952.75;;;21.41;38.85
70323;BME280;57735;56.264;43.898;2022-08-19T07:13:53;101951.16;;;21.46;38.92
70323;BME280;57735;56.264;43.898;2022-08-19T07:16:25;101970.38;;;21.59;39.31
70323;BME280;57735;56.264;43.898;2022-08-19T07:18:58;101972.13;;;21.67;37.23
70323;BME280;57735;56.264;43.898;2022-08-19T07:21:29;101970.72;;;21.71;36.83
70323;BME280;57735;56.264;43.898;2022-08-19T07:24:00;101969.34;;;21.75;36.61
70323;BME280;57735;56.264;43.898;2022-08-19T07:26:33;101952.19;;;21.75;36.30
70323;BME280;57735;56.264;43.898;2022-08-19T07:29:10;101953.94;;;21.82;36.17
70323;BME280;57735;56.264;43.898;2022-08-19T07:31:41;101947.22;;;21.93;36.35
70323;BME280;57735;56.264;43.898;2022-08-19T07:34:12;101953.41;;;22.02;35.61
70323;BME280;57735;56.264;43.898;2022-08-19T07:36:45;101952.00;;;22.06;35.20
70323;BME280;57735;56.264;43.898;2022-08-19T07:39:28;101958.09;;;22.08;35.21
70323;BME280;57735;56.264;43.898;2022-08-19T07:42:02;101964.59;;;22.28;35.72
70323;BME280;57735;56.264;43.898;2022-08-19T07:44:34;101956.13;;;22.38;34.85
70323;BME280;57735;56.264;43.898;2022-08-19T07:47:05;101958.91;;;22.44;34.27
70323;BME280;57735;56.264;43.898;2022-08-19T07:49:37;101965.06;;;22.53;34.81
70323;BME280;57735;56.264;43.898;2022-08-19T07:52:08;101972.88;;;22.62;34.61
70323;BME280;57735;56.264;43.898;2022-08-19T07:54:40;101974.38;;;22.65;34.21
70323;BME280;57735;56.264;43.898;2022-08-19T07:57:11;101957.09;;;22.73;34.10
70323;BME280;57735;56.264;43.898;2022-08-19T07:59:42;101961.38;;;22.82;33.26
70323;BME280;57735;56.264;43.898;2022-08-19T08:02:16;101965.13;;;22.81;32.46
70323;BME280;57735;56.264;43.898;2022-08-19T08:04:49;101968.50;;;22.83;32.82
70323;BME280;57735;56.264;43.898;2022-08-19T08:07:38;101974.22;;;22.88;32.57
70323;BME280;57735;56.264;43.898;2022-08-19T08:10:27;101976.53;;;22.91;32.55
70323;BME280;57735;56.264;43.898;2022-08-19T08:13:11;101975.13;;;22.95;32.25
70323;BME280;57735;56.264;43.898;2022-08-19T08:15:54;101975.22;;;23.08;32.48
70323;BME280;57735;56.264;43.898;2022-08-19T08:18:25;101981.81;;;23.20;32.37
70323;BME280;57735;56.264;43.898;2022-08-19T08:20:59;101978.03;;;23.21;32.10
70323;BME280;57735;56.264;43.898;2022-08-19T08:23:30;101986.41;;;23.20;31.88
70323;BME280;57735;56.264;43.898;2022-08-19T08:26:02;101984.91;;;23.17;31.42
70323;BME280;57735;56.264;43.898;2022-08-19T08:28:34;101983.41;;;23.15;31.32
70323;BME280;57735;56.264;43.898;2022-08-19T08:31:05;101996.44;;;23.19;31.31
70323;BME280;57735;56.264;43.898;2022-08-19T08:33:35;101985.81;;;23.24;31.24
70323;BME280;57735;56.264;43.898;2022-08-19T08:36:07;101972.22;;;23.24;30.57
70323;BME280;57735;56.264;43.898;2022-08-19T08:38:43;101978.94;;;23.28;30.78
70323;BME280;57735;56.264;43.898;2022-08-19T08:41:42;101980.22;;;23.32;30.90
70323;BME280;57735;56.264;43.898;2022-08-19T08:44:19;101990.25;;;23.32;30.89
70323;BME280;57735;56.264;43.898;2022-08-19T08:47:01;101989.91;;;23.42;30.52
70323;BME280;57735;56.264;43.898;2022-08-19T08:52:33;101989.00;;;23.56;31.72
70323;BME280;57735;56.264;43.898;2022-08-19T08:55:19;101976.97;;;23.78;31.35
70323;BME280;57735;56.264;43.898;2022-08-19T08:58:06;101995.03;;;23.86;29.64
70323;BME280;57735;56.264;43.898;2022-08-19T09:00:44;101987.88;;;23.78;27.78
70323;BME280;57735;56.264;43.898;2022-08-19T09:03:22;101984.91;;;23.73;28.28
70323;BME280;57735;56.264;43.898;2022-08-19T09:06:02;101988.75;;;23.85;28.91
70323;BME280;57735;56.264;43.898;2022-08-19T09:11:48;101976.22;;;23.97;27.52
70323;BME280;57735;56.264;43.898;2022-08-19T09:14:48;101978.53;;;24.00;26.98
70323;BME280;57735;56.264;43.898;2022-08-19T09:17:25;101986.50;;;23.95;25.41
70323;BME280;57735;56.264;43.898;2022-08-19T09:20:05;101987.75;;;23.99;25.67
70323;BME280;57735;56.264;43.898;2022-08-19T09:22:41;101987.59;;;24.08;25.36
70323;BME280;57735;56.264;43.898;2022-08-19T09:25:17;101978.19;;;24.10;25.10
70323;BME280;57735;56.264;43.898;2022-08-19T09:27:50;101974.00;;;24.21;25.44
70323;BME280;57735;56.264;43.898;2022-08-19T09:30:25;101974.06;;;24.34;26.22
70323;BME280;57735;56.264;43.898;2022-08-19T09:32:56;101982.91;;;24.43;26.04
70323;BME280;57735;56.264;43.898;2022-08-19T09:35:29;101969.69;;;24.40;26.39
70323;BME280;57735;56.264;43.898;2022-08-19T09:38:02;101974.31;;;24.39;27.32
70323;BME280;57735;56.264;43.898;2022-08-19T09:40:33;101959.44;;;24.42;27.47
70323;BME280;57735;56.264;43.898;2022-08-19T09:43:06;101967.19;;;24.51;27.51
70323;BME280;57735;56.264;43.898;2022-08-19T09:45:38;101970.78;;;24.58;26.62
70323;BME280;57735;56.264;43.898;2022-08-19T09:48:09;101963.25;;;24.60;25.63
70323;BME280;57735;56.264;43.898;2022-08-19T09:50:44;101985.91;;;24.61;25.43
70323;BME280;57735;56.264;43.898;2022-08-19T09:53:18;101978.56;;;24.61;25.43
70323;BME280;57735;56.264;43.898;2022-08-19T09:55:49;101977.72;;;24.67;25.66
70323;BME280;57735;56.264;43.898;2022-08-19T09:58:20;101980.66;;;24.73;25.03
70323;BME280;57735;56.264;43.898;2022-08-19T10:00:50;101984.25;;;24.80;25.00
70323;BME280;57735;56.264;43.898;2022-08-19T10:03:23;101974.16;;;24.80;24.51
70323;BME280;57735;56.264;43.898;2022-08-19T10:05:55;101979.84;;;24.79;24.53
70323;BME280;57735;56.264;43.898;2022-08-19T10:08:29;101982.97;;;24.82;23.88
70323;BME280;57735;56.264;43.898;2022-08-19T10:11:01;101973.09;;;24.81;23.66
70323;BME280;57735;56.264;43.898;2022-08-19T10:13:32;101974.81;;;24.89;24.29
70323;BME280;57735;56.264;43.898;2022-08-19T10:16:09;101978.16;;;24.91;24.45
70323;BME280;57735;56.264;43.898;2022-08-19T10:18:40;101969.59;;;25.00;24.75
70323;BME280;57735;56.264;43.898;2022-08-19T10:21:16;101972.31;;;25.07;24.51
70323;BME280;57735;56.264;43.898;2022-08-19T10:23:53;101967.28;;;25.11;24.61
70323;BME280;57735;56.264;43.898;2022-08-19T10:26:28;101970.19;;;25.16;25.00
70323;BME280;57735;56.264;43.898;2022-08-19T10:28:59;101978.41;;;25.22;24.08
70323;BME280;57735;56.264;43.898;2022-08-19T10:31:32;101980.09;;;25.23;23.49
70323;BME280;57735;56.264;43.898;2022-08-19T10:34:03;101970.44;;;25.27;23.64
70323;BME280;57735;56.264;43.898;2022-08-19T10:36:37;101980.28;;;25.28;22.96
70323;BME280;57735;56.264;43.898;2022-08-19T10:39:09;101983.00;;;25.35;23.50
70323;BME280;57735;56.264;43.898;2022-08-19T10:41:41;102003.78;;;25.43;23.48
70323;BME280;57735;56.264;43.898;2022-08-19T10:44:14;101984.44;;;25.51;22.79
70323;BME280;57735;56.264;43.898;2022-08-19T10:46:48;101985.69;;;25.55;22.62
70323;BME280;57735;56.264;43.898;2022-08-19T10:49:19;101991.16;;;25.61;22.25
70323;BME280;57735;56.264;43.898;2022-08-19T10:51:50;101988.63;;;25.60;22.58
70323;BME280;57735;56.264;43.898;2022-08-19T10:54:40;101989.28;;;25.55;21.93
70323;BME280;57735;56.264;43.898;2022-08-19T10:57:32;101999.97;;;25.57;21.97
70323;BME280;57735;56.264;43.898;2022-08-19T11:00:09;101993.72;;;25.63;22.32
70323;BME280;57735;56.264;43.898;2022-08-19T11:02:43;102007.97;;;25.71;21.98
70323;BME280;57735;56.264;43.898;2022-08-19T11:05:14;102013.44;;;25.78;20.65
70323;BME280;57735;56.264;43.898;2022-08-19T11:07:45;102007.97;;;25.78;21.07
70323;BME280;57735;56.264;43.898;2022-08-19T11:10:19;102000.81;;;25.77;21.03
70323;BME280;57735;56.264;43.898;2022-08-19T11:12:57;101998.50;;;25.74;20.79
70323;BME280;57735;56.264;43.898;2022-08-19T11:15:47;102004.41;;;25.71;21.61
70323;BME280;57735;56.264;43.898;2022-08-19T11:18:30;101996.41;;;25.69;21.75
70323;BME280;57735;56.264;43.898;2022-08-19T11:21:05;101991.78;;;25.70;21.76
70323;BME280;57735;56.264;43.898;2022-08-19T11:23:36;102008.81;;;25.72;22.18
70323;BME280;57735;56.264;43.898;2022-08-19T11:26:07;102004.19;;;25.72;21.73
70323;BME280;57735;56.264;43.898;2022-08-19T11:28:38;101999.78;;;25.71;21.86
70323;BME280;57735;56.264;43.898;2022-08-19T11:31:15;101987.38;;;25.69;22.28
70323;BME280;57735;56.264;43.898;2022-08-19T11:33:46;101993.25;;;25.72;22.35
70323;BME280;57735;56.264;43.898;2022-08-19T11:36:21;101989.47;;;25.73;22.29
70323;BME280;57735;56.264;43.898;2022-08-19T11:38:52;101994.50;;;25.77;22.33
70323;BME280;57735;56.264;43.898;2022-08-19T11:41:26;102007.75;;;25.80;22.48
70323;BME280;57735;56.264;43.898;2022-08-19T11:43:57;101996.41;;;25.69;22.25
70323;BME280;57735;56.264;43.898;2022-08-19T11:46:28;101996.00;;;25.59;22.38
70323;BME280;57735;56.264;43.898;2022-08-19T11:49:03;101994.94;;;25.54;22.60
70323;BME280;57735;56.264;43.898;2022-08-19T11:51:35;101997.69;;;25.54;23.14
70323;BME280;57735;56.264;43.898;2022-08-19T11:54:06;101998.09;;;25.57;22.91
70323;BME280;57735;56.264;43.898;2022-08-19T11:56:38;101997.69;;;25.60;23.10
70323;BME280;57735;56.264;43.898;2022-08-19T11:59:09;101992.63;;;25.57;23.18
70323;BME280;57735;56.264;43.898;2022-08-19T12:01:41;101994.53;;;25.57;23.59
70323;BME280;57735;56.264;43.898;2022-08-19T12:04:13;101996.41;;;25.50;23.53
70323;BME280;57735;56.264;43.898;2022-08-19T12:06:44;101998.53;;;25.41;23.76
70323;BME280;57735;56.264;43.898;2022-08-19T12:09:17;102002.53;;;25.38;24.10
70323;BME280;57735;56.264;43.898;2022-08-19T12:11:48;102007.78;;;25.33;24.16
70323;BME280;57735;56.264;43.898;2022-08-19T12:14:19;102017.44;;;25.43;24.61
70323;BME280;57735;56.264;43.898;2022-08-19T12:16:50;102018.09;;;25.45;24.43
70323;BME280;57735;56.264;43.898;2022-08-19T12:19:22;102007.97;;;25.52;24.64
70323;BME280;57735;56.264;43.898;2022-08-19T12:21:59;102005.66;;;25.55;25.07
70323;BME280;57735;56.264;43.898;2022-08-19T12:24:32;102014.47;;;25.70;25.31
70323;BME280;57735;56.264;43.898;2022-08-19T12:27:06;102015.69;;;25.94;25.70
70323;BME280;57735;56.264;43.898;2022-08-19T12:29:37;102018.59;;;26.06;24.59
70323;BME280;57735;56.264;43.898;2022-08-19T12:32:07;102017.69;;;26.19;24.52
70323;BME280;57735;56.264;43.898;2022-08-19T12:34:42;102016.78;;;26.38;24.08
70323;BME280;57735;56.264;43.898;2022-08-19T12:37:13;102022.19;;;26.83;23.63
70323;BME280;57735;56.264;43.898;2022-08-19T12:39:44;102020.47;;;27.44;22.84
70323;BME280;57735;56.264;43.898;2022-08-19T12:42:16;102023.56;;;27.91;22.38
70323;BME280;57735;56.264;43.898;2022-08-19T12:44:50;102023.88;;;28.20;21.80
70323;BME280;57735;56.264;43.898;2022-08-19T12:47:22;102012.63;;;28.28;21.65
70323;BME280;57735;56.264;43.898;2022-08-19T12:49:53;102006.25;;;28.45;21.48
70323;BME280;57735;56.264;43.898;2022-08-19T12:52:25;102012.25;;;28.66;21.85
70323;BME280;57735;56.264;43.898;2022-08-19T12:54:57;102012.75;;;28.93;21.78
70323;BME280;57735;56.264;43.898;2022-08-19T12:57:34;102006.31;;;29.22;21.34
70323;BME280;57735;56.264;43.898;2022-08-19T13:00:11;101999.16;;;29.33;21.24
70323;BME280;57735;56.264;43.898;2022-08-19T13:02:45;102005.75;;;29.67;21.18
70323;BME280;57735;56.264;43.898;2022-08-19T13:05:19;101989.44;;;30.00;20.35
70323;BME280;57735;56.264;43.898;2022-08-19T13:07:53;102005.22;;;30.45;20.36
70323;BME280;57735;56.264;43.898;2022-08-19T13:10:32;102005.31;;;30.95;20.00
70323;BME280;57735;56.264;43.898;2022-08-19T13:13:08;102001.91;;;31.21;19.36
70323;BME280;57735;56.264;43.898;2022-08-19T13:15:41;102008.19;;;31.34;19.65
70323;BME280;57735;56.264;43.898;2022-08-19T13:18:12;101997.25;;;31.61;19.28
70323;BME280;57735;56.264;43.898;2022-08-19T13:20:47;101993.00;;;31.70;18.89